• Join FlightAware (Why Join?)
  • Login
  • US Flag 
11:38AM EDT


 

Airport Tracker/Info


-or-


 

Live Flight TrackerFlight Track Log ✈ AAL1138 ✈ 22-Apr-2013 ✈ MDSD / SDQ - KMIA

Flight Track Log - Related Links

Times and Time Zones

All times are in EDT time to prevent confusion due to time zone crossing. See the AAL1138 flight status page for this flight to view local times or setup timezone preferences in your user account.

Time Position Orientation Groundspeed Altitude Reporting Facility
EDT Latitude Longitude Course Direction KTS MPH feet Rate Location/Type
04:17PM 18.6994 -69.8464 328° Northwest  Level FlightAware Approximate
04:18PM 18.7893 -69.9057 328° Northwest  Level FlightAware Approximate
04:19PM 18.8792 -69.9651 328° Northwest  Level FlightAware Approximate
04:20PM 18.9690 -70.0245 328° Northwest  Level FlightAware Approximate
04:21PM 19.0589 -70.0840 328° Northwest  Level FlightAware Approximate
04:22PM 19.1382 -70.1370 325° Northwest  Level FlightAware Approximate
04:22PM 18.5192 -70.1597 327° Northwest 462 532 19,000  Level Miami Center
04:23PM 19.2247 -70.2018 325° Northwest  Level FlightAware Approximate
04:23PM 18.6233 -70.2094 336° Northwest 436 502 21,600  Level Miami Center
04:24PM 19.3144 -70.2691 325° Northwest  Level FlightAware Approximate
04:24PM 18.7253 -70.2614 334° Northwest 412 474 23,800  Level Miami Center
04:25PM 19.4065 -70.3329 327° Northwest  Level FlightAware Approximate
04:25PM 18.8333 -70.3089 337° Northwest 412 474 25,600  Level Miami Center
04:26PM 19.4991 -70.3958 327° Northwest  Level FlightAware Approximate
04:26PM 18.9400 -70.3697 332° Northwest 417 480 27,400  Level Miami Center
04:27PM 19.5917 -70.4588 327° Northwest  Level FlightAware Approximate
04:27PM 19.0547 -70.4258 335° Northwest 433 498 29,400  Level Miami Center
04:28PM 19.1672 -70.4864 333° Northwest 445 512 31,400 2,100 Climbing Miami Center
04:29PM 19.2797 -70.5383 336° Northwest 445 512 33,600 1,260 Climbing Miami Center
04:30PM 19.3883 -70.5994 332° Northwest 445 512 34,000 180 Climbing Miami Center
04:31PM 19.5011 -70.6558 335° Northwest 439 505 34,000  Level Miami Center
04:32PM 19.6072 -70.7106 334° Northwest 439 505 34,000  Level Miami Center
04:33PM 19.7175 -70.7628 336° Northwest 439 505 34,000  Level Miami Center
04:34PM 19.8281 -70.8219 333° Northwest 439 505 34,000  Level Miami Center
04:35PM 19.9386 -70.8767 335° Northwest 439 505 34,000  Level Miami Center
04:36PM 20.0492 -70.9358 333° Northwest 439 505 34,000  Level Miami Center
04:37PM 20.1575 -70.9908 335° Northwest 439 505 34,000  Level Miami Center
04:38PM 20.2703 -71.0500 334° Northwest 439 505 34,000  Level Miami Center
04:39PM 20.3808 -71.1072 334° Northwest 439 505 34,000  Level Miami Center
04:40PM 20.4614 -71.2014 312° West 430 495 34,000  Level Miami Center
04:41PM 20.5231 -71.2939 305° West 425 489 34,000  Level Miami Center
04:42PM 20.5872 -71.4019 302° West 430 495 34,000  Level Miami Center
04:43PM 20.6536 -71.5100 303° West 435 501 34,000  Level Miami Center
04:44PM 20.7197 -71.6139 304° West 435 501 34,000  Level Miami Center
04:45PM 20.7881 -71.7222 304° West 435 501 34,000  Level Miami Center
04:46PM 20.8542 -71.8306 303° West 435 501 34,000  Level Miami Center
04:47PM 20.9200 -71.9369 304° West 435 501 34,000  Level Miami Center
04:48PM 20.9861 -72.0433 304° West 430 495 34,000  Level Miami Center
04:49PM 21.0542 -72.1519 304° West 430 495 34,000  Level Miami Center
04:50PM 21.1178 -72.2589 303° West 430 495 34,000  Level Miami Center
04:51PM 21.1836 -72.3656 304° West 430 495 34,000  Level Miami Center
04:52PM 21.2492 -72.4747 303° West 430 495 34,000  Level Miami Center
04:53PM 21.3147 -72.5794 304° West 425 489 34,000  Level Miami Center
04:54PM 21.3803 -72.6819 304° West 425 489 34,000  Level Miami Center
04:55PM 21.4436 -72.7892 302° West 425 489 34,000  Level Miami Center
04:56PM 21.5092 -72.8967 303° West 425 489 34,000  Level Miami Center
04:57PM 21.5722 -73.0039 302° West 425 489 34,000  Level Miami Center
04:58PM 21.6439 -73.1136 305° West 425 489 34,000  Level Miami Center
04:59PM 21.7092 -73.2211 303° West 430 495 34,000  Level Miami Center
05:00PM 21.7744 -73.3311 303° West 430 495 34,000  Level Miami Center
05:01PM 21.8375 -73.4414 302° West 425 489 34,000  Level Miami Center
05:02PM 21.9003 -73.5492 302° West 425 489 34,000  Level Miami Center
05:03PM 21.9672 -73.6550 304° West 425 489 34,000  Level Miami Center
05:04PM 22.0325 -73.7722 301° West 425 489 34,000  Level Miami Center
05:05PM 22.0972 -73.8783 303° West 425 489 34,000  Level Miami Center
05:06PM 22.1578 -73.9844 302° West 425 489 34,000  Level Miami Center
05:07PM 22.2203 -74.0908 302° West 425 489 34,000  Level Miami Center
05:08PM 22.2847 -74.1994 303° West 425 489 34,000  Level Miami Center
05:09PM 22.3492 -74.3036 304° West 425 489 34,000  Level Miami Center
05:10PM 22.4136 -74.4100 303° West 425 489 34,000  Level Miami Center
05:11PM 22.4781 -74.5214 302° West 425 489 34,000  Level Miami Center
05:12PM 22.5425 -74.6325 302° West 425 489 34,000  Level Miami Center
05:13PM 22.6067 -74.7417 303° West 430 495 34,000  Level Miami Center
05:14PM 22.6731 -74.8508 303° West 430 495 34,000  Level Miami Center
05:15PM 22.7350 -74.9581 302° West 423 487 34,000  Level Miami Center
05:16PM 22.7967 -75.0631 303° West 423 487 34,000  Level Miami Center
05:17PM 22.8564 -75.1681 302° West 423 487 34,000  Level Miami Center
05:18PM 22.9183 -75.2756 302° West 423 487 34,000  Level Miami Center
05:19PM 22.9819 -75.3808 303° West 423 487 34,000  Level Miami Center
05:20PM 23.0353 -75.4750 302° West 423 487 34,000  Level Miami Center
05:21PM 23.0967 -75.5828 302° West 423 487 34,000  Level Miami Center
05:22PM 23.1561 -75.6839 303° West 418 481 34,000 600 Level Miami Center
05:23PM 23.2153 -75.7919 301° West 418 481 35,200 1,200 Climbing Miami Center
05:24PM 23.2767 -75.8978 302° West 418 481 36,500 1,320 Climbing Miami Center
05:25PM 23.3358 -76.0014 302° West 418 481 37,900 720 Climbing Miami Center
05:26PM 23.3969 -76.1050 303° West 413 475 38,000  Climbing Miami Center
05:27PM 23.4558 -76.2067 302° West 408 470 38,000  Level Miami Center
05:28PM 23.5150 -76.3106 302° West 408 470 38,000  Level Miami Center
05:29PM 23.5800 -76.4236 302° West 408 470 38,000  Level Miami Center
05:30PM 23.6389 -76.5278 302° West 408 470 38,000  Level Miami Center
05:31PM 23.6956 -76.6297 301° West 408 470 38,000  Level Miami Center
05:32PM 23.7500 -76.7272 301° West 403 464 38,000  Level Miami Center
05:33PM 23.8086 -76.8269 303° West 398 458 38,000  Level Miami Center
05:34PM 23.8628 -76.9247 301° West 386 444 38,000  Level Miami Center
05:35PM 23.9150 -77.0225 300° West 379 436 38,000  Level Miami Center
05:36PM 23.9733 -77.1228 302° West 384 442 38,000  Level Miami Center
05:37PM 24.0297 -77.2275 301° West 389 448 38,000  Level Miami Center
05:38PM 24.0817 -77.3186 302° West 394 453 38,000  Level Miami Center
05:39PM 24.1397 -77.4236 301° West 394 453 38,000  Level Miami Center
05:40PM 24.1978 -77.5286 301° West 399 459 38,000  Level Miami Center
05:41PM 24.2558 -77.6361 301° West 399 459 38,000  Level Miami Center
05:46PM 24.5620 -78.1960 301° West 382 440 38,000  Level FlightAware
05:47PM 24.6070 -78.2790 301° West 381 438 38,000 -1,200 Level FlightAware
05:48PM 24.6230 -78.4460 276° West 394 453 35,300 -1,440 Descending FlightAware
05:50PM 24.5290 -78.6550 244° Southwest 407 468 33,200 -1,440 Descending FlightAware
05:52PM 24.4370 -78.8300 240° Southwest 412 474 30,200 -1,320 Descending FlightAware
05:52PM 24.4080 -78.9060 247° West 412 474 30,200  Level FlightAware
05:53PM 24.3830 -78.9710 247° West 412 474 30,200  Level FlightAware
05:54PM 24.3510 -79.0530 247° West 412 474 30,200 -2,700 Level FlightAware
05:57PM 24.8710 -79.3050 336° Northwest 380 437 18,500 -3,120 Descending FlightAware
05:58PM 24.9260 -79.3500 323° Northwest 380 437 17,300 -1,320 Descending FlightAware
05:59PM 24.9910 -79.4020 324° Northwest 378 435 16,700 -1,800 Descending FlightAware
06:00PM 25.0490 -79.4480 324° Northwest 362 417 14,800 -2,160 Descending FlightAware
06:00PM 25.0980 -79.4880 324° Northwest 359 413 14,000 -1,020 Descending FlightAware
06:01PM 25.1660 -79.5420 324° Northwest 356 410 13,400 -600 Descending FlightAware
06:04PM 25.3880 -79.7220 324° Northwest 284 327 11,800 -720 Descending FlightAware
06:05PM 25.4260 -79.7730 310° West 281 323 10,800 -1,380 Descending FlightAware
06:05PM 25.4530 -79.8140 306° West 285 328 10,000 -1,500 Descending FlightAware
06:06PM 25.4760 -79.8510 305° West 284 327 9,200 -480 Descending FlightAware
06:10PM 25.6550 -80.1230 306° West 281 323 8,000 -300 Descending FlightAware
06:10PM 25.6640 -80.1410 299° West 279 321 8,000  Level FlightAware
06:10PM 25.6750 -80.1750 290° West 281 323 8,000  Level FlightAware
06:11PM 25.6860 -80.2180 286° West 276 318 8,000  Level FlightAware
06:11PM 25.6960 -80.2570 286° West 254 292 8,000 -600 Level FlightAware
06:12PM 25.7040 -80.2880 286° West 242 278 7,500 -1,320 Descending FlightAware
06:12PM 25.7110 -80.3170 285° West 231 266 6,900 -1,800 Descending FlightAware
06:13PM 25.7120 -80.3520 272° West 233 268 5,900 -1,920 Descending FlightAware
06:13PM 25.7100 -80.3890 267° West 234 269 5,000 -1,920 Descending FlightAware
06:14PM 25.7080 -80.4240 266° West 223 257 4,000 -1,920 Descending FlightAware
06:14PM 25.7070 -80.4460 267° West 225 259 3,400 -1,500 Descending FlightAware
06:14PM 25.7130 -80.4670 288° West 213 245 3,000 -720 Descending FlightAware
06:15PM 25.7260 -80.4760 328° Northwest 183 211 3,000 -840 Level FlightAware
06:15PM 25.7540 -80.4780 356° North 175 201 2,300 -1,020 Descending FlightAware
06:16PM 25.7700 -80.4690 27° Northeast 191 220 2,100 -600 Descending FlightAware
06:16PM 25.7780 -80.4510 64° Northeast 186 214 1,900 -600 Descending FlightAware
06:16PM 25.7830 -80.4260 77° East 157 181 1,600 -720 Descending FlightAware
06:17PM 25.7830 -80.4010 90° East 151 174 1,200 -480 Descending FlightAware
06:18PM 25.7840 -80.3680 88° East 152 175 1,000 -480 Descending FlightAware
06:18PM 25.7850 -80.3520 86° East 156 180 700 -840 Descending FlightAware
06:18PM 25.7860 -80.3300 87° East 154 177 300 -840 Descending FlightAware